Time;durP1;ratioP1;P1;durP2;ratioP2;P2;SDS_P1;SDS_P2;PMS_P1;PMS_P2;Temp;Humidity;BMP_temperature;BMP_pressure;BME280_temperature;BME280_humidity;BME280_pressure;Samples;Min_cycle;Max_cycle;Signal;HPM_P1;HPM_P2
2022/07/28 00:01:42;;;;;;;3.20;0.90;;;16.60;1.00;;;;;;5054521;28;20431;-77
2022/07/28 00:04:12;;;;;;;1.53;1.10;;;16.70;1.00;;;;;;5036017;28;20242;-77
2022/07/28 00:06:37;;;;;;;3.87;1.17;;;16.60;1.00;;;;;;5034772;28;20378;-77
2022/07/28 00:09:11;;;;;;;1.63;0.93;;;16.60;1.00;;;;;;5043706;28;20435;-77
2022/07/28 00:11:54;;;;;;;2.10;1.00;;;16.60;1.00;;;;;;5042014;28;20173;-77
2022/07/28 00:14:20;;;;;;;1.30;0.97;;;16.50;1.00;;;;;;5055505;28;20891;-77
2022/07/28 00:16:48;;;;;;;2.50;1.20;;;16.60;1.00;;;;;;5037363;28;20387;-77
2022/07/28 00:19:14;;;;;;;7.90;1.20;;;16.50;1.00;;;;;;5036488;28;20405;-78
2022/07/28 00:21:42;;;;;;;1.00;0.90;;;16.50;1.00;;;;;;5055781;28;20417;-76
2022/07/28 00:24:18;;;;;;;2.40;0.90;;;16.40;1.00;;;;;;5055430;28;20168;-76
2022/07/28 00:26:43;;;;;;;4.77;0.83;;;16.40;1.00;;;;;;5035808;28;20364;-76
2022/07/28 00:29:09;;;;;;;10.07;0.93;;;16.40;1.00;;;;;;5049025;28;20816;-76
2022/07/28 00:31:42;;;;;;;3.90;1.03;;;16.40;1.00;;;;;;5054329;28;20211;-76
2022/07/28 00:34:11;;;;;;;2.20;1.00;;;16.40;1.00;;;;;;5044518;28;20636;-75
2022/07/28 00:36:37;;;;;;;3.67;1.10;;;16.40;1.00;;;;;;5075806;28;20414;-76
2022/07/28 00:39:03;;;;;;;2.10;0.60;;;16.30;1.00;;;;;;5055372;28;20420;-76
2022/07/28 00:41:30;;;;;;;1.37;1.10;;;16.40;1.00;;;;;;5046131;28;20200;-75
2022/07/28 00:44:12;;;;;;;6.63;1.20;;;16.30;1.00;;;;;;5035167;28;20941;-76
2022/07/28 00:46:42;;;;;;;2.50;1.00;;;16.20;1.00;;;;;;5047292;28;20712;-76
2022/07/28 00:49:08;;;;;;;2.70;1.00;;;16.30;1.00;;;;;;5036262;28;20410;-76
2022/07/28 00:51:59;;;;;;;2.40;1.00;;;16.20;1.00;;;;;;5034383;28;20382;-77
2022/07/28 00:54:36;;;;;;;5.80;0.93;;;16.20;1.00;;;;;;5043663;28;20385;-77
2022/07/28 00:57:02;;;;;;;4.73;1.03;;;16.20;1.00;;;;;;5053505;28;20448;-77
2022/07/28 00:59:36;;;;;;;1.47;0.80;;;16.10;1.00;;;;;;5044645;28;20443;-77
2022/07/28 01:02:18;;;;;;;2.60;1.20;;;16.10;1.00;;;;;;5052711;28;20418;-77
2022/07/28 01:05:29;;;;;;;1.80;1.07;;;16.10;1.00;;;;;;5041046;28;20429;-77
2022/07/28 01:08:02;;;;;;;2.97;0.90;;;16.00;1.00;;;;;;5053325;28;20405;-76
2022/07/28 01:10:37;;;;;;;1.43;1.23;;;16.00;1.00;;;;;;5034956;28;20534;-77
2022/07/28 01:13:06;;;;;;;2.87;1.17;;;16.00;1.00;;;;;;5046905;28;20408;-76
2022/07/28 01:15:36;;;;;;;1.70;1.10;;;16.00;1.00;;;;;;5046735;28;20426;-76
2022/07/28 01:18:06;;;;;;;6.03;1.37;;;16.00;1.00;;;;;;5040374;28;20775;-75
2022/07/28 01:21:17;;;;;;;2.70;1.23;;;16.00;1.00;;;;;;5055014;28;20402;-77
2022/07/28 01:24:06;;;;;;;2.00;0.87;;;15.90;1.00;;;;;;5037573;28;20461;-78
2022/07/28 01:27:09;;;;;;;3.70;1.00;;;15.90;1.00;;;;;;5045044;28;20411;-77
2022/07/28 01:30:17;;;;;;;2.10;1.17;;;15.90;1.00;;;;;;4992774;28;20447;-77
2022/07/28 01:32:54;;;;;;;1.60;0.90;;;15.90;1.00;;;;;;4978951;28;20425;-77
2022/07/28 01:35:29;;;;;;;4.70;0.70;;;15.90;1.00;;;;;;4992648;28;20433;-77
2022/07/28 01:37:59;;;;;;;1.90;0.93;;;15.90;1.00;;;;;;4993254;28;20395;-76
2022/07/28 01:40:44;;;;;;;1.23;0.80;;;15.80;1.00;;;;;;4992646;28;20848;-76
2022/07/28 01:43:25;;;;;;;3.93;0.93;;;15.80;1.00;;;;;;4992096;28;20415;-76
2022/07/28 01:45:55;;;;;;;8.93;1.20;;;15.80;1.00;;;;;;4980129;28;20783;-76
2022/07/28 01:48:23;;;;;;;0.90;0.90;;;15.80;1.00;;;;;;4992461;28;20416;-76
2022/07/28 01:50:55;;;;;;;3.27;1.17;;;15.80;1.00;;;;;;4992578;28;20849;-77
2022/07/28 01:53:59;;;;;;;3.80;1.20;;;15.70;1.00;;;;;;4973215;28;20912;-77
2022/07/28 01:56:27;;;;;;;4.53;1.47;;;15.70;1.00;;;;;;4986335;28;20435;-77
2022/07/28 01:58:57;;;;;;;5.03;1.00;;;15.70;1.00;;;;;;4992565;28;20394;-77
2022/07/28 02:01:59;;;;;;;3.17;1.10;;;15.80;1.00;;;;;;4992486;28;20398;-77
2022/07/28 02:04:32;;;;;;;3.00;0.97;;;15.80;1.00;;;;;;5040848;28;20493;-77
2022/07/28 02:07:00;;;;;;;1.20;1.10;;;15.80;1.00;;;;;;5045536;28;20426;-77
2022/07/28 02:09:48;;;;;;;2.63;1.10;;;15.80;1.00;;;;;;5045731;28;20436;-77
2022/07/28 02:12:17;;;;;;;2.50;0.90;;;15.80;1.00;;;;;;5033150;28;20367;-77
2022/07/28 02:14:57;;;;;;;1.50;1.00;;;15.80;1.00;;;;;;5050758;28;20373;-77
2022/07/28 02:17:30;;;;;;;2.33;1.17;;;15.80;1.00;;;;;;5044801;28;20404;-77
2022/07/28 02:20:08;;;;;;;2.67;0.90;;;15.90;1.00;;;;;;5046550;28;20456;-77
2022/07/28 02:22:38;;;;;;;1.10;0.90;;;15.90;1.00;;;;;;5038085;28;20889;-77
2022/07/28 02:25:24;;;;;;;1.50;0.80;;;15.80;1.00;;;;;;5045734;28;20412;-77
2022/07/28 02:28:02;;;;;;;2.47;1.20;;;15.90;1.00;;;;;;5044217;28;20760;-77
2022/07/28 02:30:54;;;;;;;6.60;1.23;;;15.90;1.00;;;;;;5057407;28;21042;-77
2022/07/28 02:33:42;;;;;;;3.57;1.13;;;15.90;1.00;;;;;;5045703;28;20748;-78
2022/07/28 02:36:40;;;;;;;3.67;1.50;;;15.90;1.00;;;;;;5041235;28;20900;-77
2022/07/28 02:39:45;;;;;;;5.70;1.40;;;15.90;1.00;;;;;;5050941;28;20407;-77
2022/07/28 02:42:32;;;;;;;1.57;1.07;;;15.90;1.00;;;;;;5037409;28;20371;-77
2022/07/28 02:45:14;;;;;;;1.13;1.03;;;15.80;1.00;;;;;;5054747;28;20445;-77
2022/07/28 02:48:23;;;;;;;1.43;0.87;;;15.90;1.00;;;;;;5057301;28;20392;-77
2022/07/28 02:50:51;;;;;;;2.27;1.60;;;15.80;1.00;;;;;;5057002;28;20454;-77
2022/07/28 02:53:19;;;;;;;2.50;0.93;;;15.80;1.00;;;;;;5044316;28;20415;-78
2022/07/28 02:55:49;;;;;;;2.57;0.80;;;15.80;1.00;;;;;;5049339;28;20389;-77
2022/07/28 02:58:20;;;;;;;3.80;1.17;;;15.80;1.00;;;;;;5052436;28;20498;-77
2022/07/28 03:01:00;;;;;;;2.50;1.00;;;15.80;1.00;;;;;;5045904;28;20414;-77
2022/07/28 03:03:32;;;;;;;3.07;0.97;;;15.70;1.00;;;;;;5053711;28;20418;-77
2022/07/28 03:06:00;;;;;;;2.27;0.93;;;15.70;1.00;;;;;;5056904;28;20857;-77
2022/07/28 03:08:30;;;;;;;4.13;0.80;;;15.60;1.00;;;;;;5053211;28;20418;-77
2022/07/28 03:11:29;;;;;;;5.60;1.17;;;15.60;1.00;;;;;;5043048;28;20834;-77
2022/07/28 03:14:00;;;;;;;2.50;1.00;;;15.60;1.00;;;;;;5054766;28;20468;-77
2022/07/28 03:16:42;;;;;;;2.30;1.03;;;15.60;1.00;;;;;;5052167;28;20452;-78
2022/07/28 03:19:12;;;;;;;0.93;0.90;;;15.60;1.00;;;;;;5036808;28;20837;-77
2022/07/28 03:21:42;;;;;;;1.30;0.83;;;15.50;1.00;;;;;;5048958;28;20443;-77
2022/07/28 03:24:12;;;;;;;2.07;1.00;;;15.50;1.00;;;;;;5045260;28;20787;-77
2022/07/28 03:27:18;;;;;;;5.00;1.10;;;15.50;1.00;;;;;;5043468;28;20801;-77
2022/07/28 03:29:52;;;;;;;1.10;0.90;;;15.50;1.00;;;;;;5002926;28;20841;-78
2022/07/28 03:32:33;;;;;;;6.20;1.17;;;15.50;1.00;;;;;;5014503;28;20452;-77
2022/07/28 03:34:59;;;;;;;2.33;0.90;;;15.50;1.00;;;;;;5013926;28;20453;-78
2022/07/28 03:37:49;;;;;;;1.30;1.07;;;15.50;1.00;;;;;;5014482;28;20833;-76
2022/07/28 03:40:28;;;;;;;5.43;0.90;;;15.60;1.00;;;;;;4961828;28;20466;-76
2022/07/28 03:43:05;;;;;;;4.03;1.10;;;15.50;1.00;;;;;;4965081;28;20949;-77
2022/07/28 03:45:36;;;;;;;3.17;0.93;;;15.50;1.00;;;;;;4962670;28;20463;-77
2022/07/28 03:48:12;;;;;;;1.30;1.10;;;15.60;1.00;;;;;;4975607;28;20533;-76
2022/07/28 03:50:59;;;;;;;5.23;1.07;;;15.60;1.00;;;;;;4975090;28;20436;-76
2022/07/28 03:53:36;;;;;;;5.60;1.30;;;15.60;1.00;;;;;;4975879;28;20798;-76
2022/07/28 03:56:02;;;;;;;2.40;1.00;;;15.60;1.00;;;;;;4975053;28;20486;-76
2022/07/28 03:58:28;;;;;;;7.70;0.90;;;15.60;1.00;;;;;;4958241;28;20549;-76
2022/07/28 04:00:54;;;;;;;1.73;0.90;;;15.60;1.00;;;;;;4956191;29;20175;-76
2022/07/28 04:03:24;;;;;;;1.57;1.20;;;15.60;1.00;;;;;;4972667;28;20202;-76
2022/07/28 04:05:54;;;;;;;1.70;0.90;;;15.60;1.00;;;;;;4950991;28;20190;-76
2022/07/28 04:08:42;;;;;;;8.53;1.17;;;15.70;1.00;;;;;;4970274;28;20561;-77
2022/07/28 04:11:18;;;;;;;1.90;1.30;;;15.70;1.00;;;;;;4955609;29;20507;-77
2022/07/28 04:14:29;;;;;;;3.50;1.00;;;15.70;1.00;;;;;;4964305;28;20507;-78
2022/07/28 04:17:00;;;;;;;1.10;0.90;;;15.70;1.00;;;;;;4995896;28;20431;-79
2022/07/28 04:19:36;;;;;;;3.03;0.80;;;15.80;1.00;;;;;;5051018;28;20482;-79
2022/07/28 04:22:01;;;;;;;2.40;0.90;;;15.80;1.00;;;;;;5047725;28;20393;-79
2022/07/28 04:24:27;;;;;;;2.90;1.10;;;15.80;1.00;;;;;;5055287;28;20488;-78
2022/07/28 04:27:11;;;;;;;2.30;1.20;;;15.90;1.00;;;;;;5044630;28;20184;-78
2022/07/28 04:29:48;;;;;;;6.70;0.90;;;15.90;1.00;;;;;;5041953;28;20196;-78
2022/07/28 04:32:37;;;;;;;2.47;1.00;;;16.00;1.00;;;;;;5055236;28;20453;-78
2022/07/28 04:35:07;;;;;;;4.20;1.20;;;16.00;1.00;;;;;;5040599;28;20914;-78
2022/07/28 04:37:37;;;;;;;1.50;0.90;;;16.10;1.00;;;;;;5035670;28;20422;-78
2022/07/28 04:40:08;;;;;;;1.47;0.97;;;16.20;1.00;;;;;;5035955;28;20403;-79
2022/07/28 04:43:05;;;;;;;2.87;1.03;;;16.20;1.00;;;;;;5053713;28;20405;-78
2022/07/28 04:46:05;;;;;;;7.33;1.40;;;16.30;1.00;;;;;;5035977;28;20402;-79
2022/07/28 04:48:36;;;;;;;3.37;1.40;;;16.40;1.00;;;;;;5049163;28;20794;-78
2022/07/28 04:51:06;;;;;;;2.30;1.10;;;16.40;1.00;;;;;;5044336;28;20541;-78
2022/07/28 04:53:36;;;;;;;8.03;1.10;;;16.50;1.00;;;;;;5047345;28;21001;-79
2022/07/28 04:56:01;;;;;;;4.77;0.97;;;16.60;1.00;;;;;;5049092;28;20455;-78
2022/07/28 04:58:27;;;;;;;1.30;0.93;;;16.60;1.00;;;;;;5041048;28;20464;-78
2022/07/28 05:00:54;;;;;;;4.80;1.03;;;16.70;1.00;;;;;;5053450;28;20171;-78
2022/07/28 05:03:24;;;;;;;6.60;1.20;;;16.80;1.00;;;;;;5041008;28;20264;-78
2022/07/28 05:05:54;;;;;;;2.50;1.10;;;16.80;1.00;;;;;;5054286;28;20398;-78
2022/07/28 05:08:30;;;;;;;1.57;0.90;;;16.80;1.00;;;;;;5050144;28;20403;-78
2022/07/28 05:11:00;;;;;;;4.10;1.10;;;16.90;1.00;;;;;;5037697;28;20539;-79
2022/07/28 05:13:25;;;;;;;10.17;1.00;;;17.00;1.00;;;;;;5042930;28;20418;-79
2022/07/28 05:15:54;;;;;;;3.33;0.93;;;17.00;1.00;;;;;;5034425;28;20523;-79
2022/07/28 05:21:59;;;;;;;1.90;1.27;;;17.20;1.00;;;;;;5040239;28;20426;-78
2022/07/28 05:24:25;;;;;;;21.30;1.23;;;17.20;1.00;;;;;;5038708;28;20502;-79
2022/07/28 05:27:00;;;;;;;3.63;2.03;;;17.30;1.00;;;;;;5053879;28;20470;-79
2022/07/28 05:30:05;;;;;;;10.17;1.60;;;17.40;1.00;;;;;;5042874;28;20201;-78
2022/07/28 05:32:48;;;;;;;3.93;1.10;;;17.50;1.00;;;;;;5041297;28;20411;-78
2022/07/28 05:35:14;;;;;;;2.80;1.07;;;17.60;1.00;;;;;;5049144;28;20413;-78
2022/07/28 05:37:48;;;;;;;7.60;1.00;;;17.60;1.00;;;;;;5040300;28;20411;-78
2022/07/28 05:40:18;;;;;;;4.80;1.67;;;17.70;1.00;;;;;;5047575;28;20938;-79
2022/07/28 05:42:48;;;;;;;2.70;1.20;;;17.80;1.00;;;;;;5039838;28;20374;-78
2022/07/28 05:45:14;;;;;;;4.50;1.40;;;17.90;1.00;;;;;;5050076;28;20507;-78
2022/07/28 05:47:59;;;;;;;2.87;0.90;;;17.90;1.00;;;;;;5043781;28;20487;-78
2022/07/28 05:50:25;;;;;;;7.07;1.13;;;18.00;1.00;;;;;;5037930;28;20212;-79
2022/07/28 05:52:54;;;;;;;2.57;1.00;;;18.10;1.00;;;;;;5052558;28;20419;-78
2022/07/28 05:55:24;;;;;;;4.27;1.40;;;18.10;1.00;;;;;;5048768;28;20591;-78
2022/07/28 05:57:54;;;;;;;4.30;0.90;;;18.50;1.00;;;;;;5038303;28;20399;-78
2022/07/28 06:00:24;;;;;;;2.50;1.20;;;18.30;1.00;;;;;;5044941;28;20428;-78
2022/07/28 06:02:54;;;;;;;4.60;1.20;;;18.30;1.00;;;;;;5040466;28;20417;-78
2022/07/28 06:05:24;;;;;;;4.07;1.40;;;18.40;1.00;;;;;;5040517;28;20421;-79
2022/07/28 06:08:00;;;;;;;2.13;1.30;;;18.50;1.00;;;;;;5052736;28;20974;-78
2022/07/28 06:13:45;;;;;;;5.70;1.20;;;18.60;1.00;;;;;;5033790;28;20775;-78
2022/07/28 06:16:19;;;;;;;8.40;1.30;;;18.80;1.00;;;;;;5033488;28;20780;-78
2022/07/28 06:18:45;;;;;;;2.90;1.37;;;18.80;1.00;;;;;;5033296;28;20372;-78
2022/07/28 06:21:12;;;;;;;10.30;1.43;;;18.80;1.00;;;;;;5047052;28;20417;-79
2022/07/28 06:23:48;;;;;;;8.83;1.97;;;18.90;1.00;;;;;;5046703;28;20690;-78
2022/07/28 06:26:30;;;;;;;5.73;1.40;;;18.90;1.00;;;;;;5033792;28;20566;-78
2022/07/28 06:29:00;;;;;;;7.70;1.10;;;18.90;1.00;;;;;;5033164;28;20426;-78
2022/07/28 06:31:36;;;;;;;4.83;1.10;;;19.00;1.00;;;;;;5049957;28;20473;-79
2022/07/28 06:34:12;;;;;;;3.53;1.20;;;19.10;1.00;;;;;;5048578;28;20428;-78
2022/07/28 06:36:42;;;;;;;6.13;1.10;;;19.20;1.00;;;;;;5051917;28;20436;-78
2022/07/28 06:39:11;;;;;;;3.17;1.20;;;19.30;1.00;;;;;;5048542;28;20889;-78
2022/07/28 06:41:54;;;;;;;2.20;1.00;;;19.30;1.00;;;;;;5044267;28;20396;-78
2022/07/28 06:44:24;;;;;;;4.53;1.10;;;19.40;1.00;;;;;;5053045;28;20410;-79
2022/07/28 06:47:06;;;;;;;6.60;1.40;;;19.60;1.00;;;;;;5053498;28;20422;-78
2022/07/28 06:49:42;;;;;;;1.57;1.03;;;19.60;1.00;;;;;;5050458;28;20469;-78
2022/07/28 06:52:24;;;;;;;2.20;1.20;;;19.70;1.00;;;;;;5052802;28;20787;-81
2022/07/28 06:55:17;;;;;;;4.93;1.00;;;19.70;1.00;;;;;;5043947;28;20410;-81
2022/07/28 06:57:43;;;;;;;5.13;1.23;;;19.90;1.00;;;;;;5050376;28;20427;-75
2022/07/28 07:00:18;;;;;;;5.23;1.33;;;19.90;1.00;;;;;;5025943;28;20491;-75
2022/07/28 07:02:48;;;;;;;2.60;1.00;;;20.00;1.00;;;;;;5061960;28;20237;-76
2022/07/28 07:05:13;;;;;;;3.40;1.23;;;20.10;1.00;;;;;;5038005;28;20422;-76
2022/07/28 07:07:39;;;;;;;3.30;1.37;;;20.20;1.00;;;;;;5048389;28;20524;-76
2022/07/28 07:10:18;;;;;;;3.20;1.20;;;20.40;1.00;;;;;;5032052;28;20337;-80
2022/07/28 07:16:12;;;;;;;3.17;1.20;;;20.50;1.00;;;;;;5036260;28;20482;-80
2022/07/28 07:18:42;;;;;;;6.23;1.23;;;20.60;1.00;;;;;;5036561;28;20887;-80
2022/07/28 07:21:41;;;;;;;4.03;1.20;;;20.70;1.00;;;;;;5039820;28;20426;-80
2022/07/28 07:24:18;;;;;;;5.63;1.10;;;20.70;1.00;;;;;;5038209;28;20423;-80
2022/07/28 07:26:54;;;;;;;5.03;2.13;;;20.70;1.00;;;;;;5035530;28;20415;-80
2022/07/28 07:29:21;;;;;;;6.07;1.07;;;20.80;1.00;;;;;;5040324;28;20751;-80
2022/07/28 07:32:17;;;;;;;11.60;1.30;;;21.00;1.00;;;;;;5058870;28;20489;-80
2022/07/28 07:34:54;;;;;;;3.73;1.23;;;21.10;1.00;;;;;;5044364;28;20902;-80
2022/07/28 07:37:54;;;;;;;5.53;1.00;;;21.20;1.00;;;;;;5053261;28;20413;-80
2022/07/28 07:43:42;;;;;;;4.83;1.53;;;21.30;1.00;;;;;;5040267;28;20411;-80
2022/07/28 07:46:08;;;;;;;2.40;1.17;;;21.40;1.00;;;;;;5043652;28;20843;-80
2022/07/28 07:49:29;;;;;;;5.77;1.10;;;21.50;1.00;;;;;;5051343;28;20192;-79
2022/07/28 07:52:00;;;;;;;5.07;1.70;;;21.60;1.00;;;;;;5051528;28;20289;-80
2022/07/28 07:54:30;;;;;;;2.80;1.43;;;21.70;1.00;;;;;;5046223;28;20416;-80
2022/07/28 07:57:06;;;;;;;2.37;1.03;;;21.70;1.00;;;;;;5038723;28;20416;-80
2022/07/28 07:59:32;;;;;;;2.70;1.20;;;21.80;1.00;;;;;;5053699;28;20513;-80
2022/07/28 08:02:17;;;;;;;2.93;1.30;;;21.90;1.00;;;;;;5045167;28;20459;-80
2022/07/28 08:05:00;;;;;;;4.83;1.10;;;22.00;1.00;;;;;;5037399;28;20225;-80
2022/07/28 08:07:30;;;;;;;9.10;1.40;;;22.00;1.00;;;;;;5035722;28;20419;-80
2022/07/28 08:10:09;;;;;;;3.80;1.20;;;22.20;1.00;;;;;;5046026;28;20451;-80
2022/07/28 08:12:36;;;;;;;4.50;1.43;;;22.30;1.00;;;;;;5035650;28;20418;-80
2022/07/28 08:15:07;;;;;;;2.90;1.50;;;22.50;1.00;;;;;;5052357;28;20921;-80
2022/07/28 08:17:48;;;;;;;2.40;1.20;;;22.50;1.00;;;;;;5055446;28;20407;-80
2022/07/28 08:20:18;;;;;;;3.33;1.27;;;22.60;1.00;;;;;;5055389;28;20513;-80
2022/07/28 08:22:52;;;;;;;9.03;1.50;;;22.70;1.00;;;;;;5038240;28;20465;-80
2022/07/28 08:25:30;;;;;;;5.03;2.10;;;22.90;1.00;;;;;;5035114;28;20441;-77
2022/07/28 08:28:23;;;;;;;2.70;1.50;;;22.90;1.00;;;;;;5039332;28;20434;-80
2022/07/28 08:30:49;;;;;;;3.03;1.33;;;23.00;1.00;;;;;;5035321;28;20493;-80
2022/07/28 08:33:20;;;;;;;2.53;1.20;;;23.10;1.00;;;;;;5048612;28;20408;-80
2022/07/28 08:39:07;;;;;;;3.60;1.43;;;23.30;1.00;;;;;;5041899;28;20411;-79
2022/07/28 08:41:45;;;;;;;2.93;1.87;;;23.40;1.00;;;;;;5045838;28;20777;-76
2022/07/28 08:44:17;;;;;;;8.93;1.70;;;23.50;1.00;;;;;;5055940;28;20654;-76
2022/07/28 08:47:10;;;;;;;7.67;1.33;;;23.60;1.00;;;;;;5060539;28;20426;-76
2022/07/28 08:49:39;;;;;;;3.30;1.57;;;23.80;1.00;;;;;;5048155;28;20820;-76
2022/07/28 08:52:13;;;;;;;2.60;1.40;;;23.90;1.00;;;;;;5047670;28;20802;-76
2022/07/28 08:54:47;;;;;;;5.50;1.20;;;24.10;1.00;;;;;;5042339;28;20905;-76
2022/07/28 08:57:23;;;;;;;7.17;1.80;;;24.20;1.00;;;;;;5053976;28;20423;-76
2022/07/28 09:00:07;;;;;;;7.00;1.50;;;24.30;1.00;;;;;;5051831;28;20434;-75
2022/07/28 09:02:37;;;;;;;22.47;2.20;;;24.50;1.00;;;;;;5049095;28;20430;-75
2022/07/28 09:05:04;;;;;;;4.77;1.50;;;24.70;1.00;;;;;;5050642;28;20424;-76
2022/07/28 09:07:31;;;;;;;3.00;1.40;;;24.70;1.00;;;;;;5052753;28;20447;-76
2022/07/28 09:09:57;;;;;;;4.63;1.70;;;24.80;1.00;;;;;;5036907;28;20461;-76
2022/07/28 09:12:33;;;;;;;6.43;1.60;;;24.90;1.00;;;;;;5051937;28;20417;-80
2022/07/28 09:15:04;;;;;;;3.30;1.70;;;25.10;1.00;;;;;;5037719;28;20173;-80
2022/07/28 09:17:48;;;;;;;4.10;1.23;;;25.20;1.00;;;;;;5045328;28;20424;-80
2022/07/28 09:20:15;;;;;;;2.83;1.27;;;25.30;1.00;;;;;;5041079;28;20834;-80
2022/07/28 09:22:58;;;;;;;4.63;1.50;;;25.50;1.00;;;;;;5057465;28;20782;-80
2022/07/28 09:25:24;;;;;;;6.30;1.50;;;25.50;1.00;;;;;;5052339;28;20421;-80
2022/07/28 09:28:15;;;;;;;4.03;1.40;;;25.50;1.00;;;;;;5049985;28;20472;-82
2022/07/28 09:30:49;;;;;;;9.13;1.23;;;25.60;1.00;;;;;;5047268;28;20456;-81
2022/07/28 09:33:31;;;;;;;3.33;1.40;;;25.60;1.00;;;;;;5050441;28;20434;-82
2022/07/28 09:35:58;;;;;;;5.27;1.37;;;25.70;1.00;;;;;;5045933;28;20436;-82
2022/07/28 09:38:26;;;;;;;5.97;1.40;;;25.80;1.00;;;;;;5042842;28;20440;-81
2022/07/28 09:41:07;;;;;;;4.43;1.53;;;25.80;1.00;;;;;;5044059;28;20425;-84
2022/07/28 09:43:38;;;;;;;8.23;1.33;;;26.00;1.00;;;;;;5047576;28;20433;-83
2022/07/28 09:46:15;;;;;;;4.37;1.10;;;26.10;1.00;;;;;;5047669;28;20421;-83
2022/07/28 09:48:56;;;;;;;9.50;1.63;;;26.30;1.00;;;;;;5033442;28;20422;-83
2022/07/28 09:51:29;;;;;;;3.37;1.40;;;26.50;1.00;;;;;;5033807;28;20475;-83
2022/07/28 09:54:16;;;;;;;16.23;2.27;;;26.60;1.00;;;;;;5052041;28;20428;-83
2022/07/28 09:56:43;;;;;;;5.03;1.50;;;26.70;1.00;;;;;;5051924;28;20421;-89
2022/07/28 09:59:10;;;;;;;3.20;1.30;;;26.90;1.00;;;;;;5054701;28;20429;-89
2022/07/28 10:01:55;;;;;;;5.67;1.97;;;26.90;1.00;;;;;;5047476;28;20450;-89
2022/07/28 10:04:35;;;;;;;3.87;1.40;;;26.90;1.00;;;;;;5044984;28;20429;-90
2022/07/28 10:07:08;;;;;;;3.77;1.60;;;27.10;1.00;;;;;;5044583;28;20805;-89
2022/07/28 10:09:34;;;;;;;6.97;1.63;;;27.40;1.00;;;;;;5053509;28;20426;-89
2022/07/28 10:12:33;;;;;;;9.20;1.80;;;27.50;1.00;;;;;;5050271;28;20476;-84
2022/07/28 10:18:04;;;;;;;2.90;1.60;;;27.60;1.00;;;;;;4975776;28;20445;-83
2022/07/28 10:20:31;;;;;;;2.77;1.70;;;27.80;1.00;;;;;;4974242;28;20426;-83
2022/07/28 10:26:31;;;;;;;2.10;1.70;;;28.00;1.00;;;;;;4988438;28;20553;-84
2022/07/28 10:29:07;;;;;;;3.87;1.40;;;28.10;1.00;;;;;;4987066;28;20868;-83
2022/07/28 10:31:56;;;;;;;2.30;1.50;;;28.30;1.00;;;;;;4980358;28;20558;-83
2022/07/28 10:34:45;;;;;;;8.50;1.70;;;28.40;1.00;;;;;;4990023;28;20456;-84
2022/07/28 10:37:18;;;;;;;6.57;1.47;;;28.40;1.00;;;;;;4988356;28;20452;-83
2022/07/28 10:40:02;;;;;;;2.83;1.43;;;28.60;1.00;;;;;;4974444;28;20988;-84
2022/07/28 10:42:48;;;;;;;10.13;1.57;;;28.80;1.00;;;;;;4961032;28;20507;-85
2022/07/28 10:45:18;;;;;;;7.97;1.37;;;28.90;1.00;;;;;;4963882;28;21494;-83
2022/07/28 10:51:13;;;;;;;6.03;1.50;;;28.50;1.00;;;;;;5032462;28;20585;-83
2022/07/28 10:54:09;;;;;;;1.97;1.60;;;28.60;1.00;;;;;;5062047;28;20795;-83
2022/07/28 10:56:54;;;;;;;2.30;1.50;;;28.70;1.00;;;;;;5050518;28;20568;-83
2022/07/28 10:59:31;;;;;;;7.03;1.40;;;28.80;1.00;;;;;;5050712;28;20457;-90
2022/07/28 11:02:41;;;;;;;3.87;1.33;;;28.70;1.00;;;;;;5047067;28;20414;-91
2022/07/28 11:05:42;;;;;;;5.30;1.77;;;28.90;1.00;;;;;;5047155;28;20420;-89
2022/07/28 11:08:15;;;;;;;2.40;1.13;;;29.00;1.00;;;;;;4989268;28;20491;-90
2022/07/28 11:10:52;;;;;;;3.10;1.50;;;29.10;1.00;;;;;;4974188;28;20462;-90
2022/07/28 11:13:41;;;;;;;10.17;1.73;;;29.10;1.00;;;;;;4995342;28;20430;-84
2022/07/28 11:16:23;;;;;;;10.37;1.80;;;29.30;1.00;;;;;;4978666;28;20422;-84
2022/07/28 11:19:08;;;;;;;4.67;1.37;;;29.60;1.00;;;;;;4991752;28;20959;-84
2022/07/28 11:22:17;;;;;;;3.23;1.60;;;29.80;1.00;;;;;;4995204;28;21024;-84
2022/07/28 11:25:11;;;;;;;1.90;1.70;;;29.90;1.00;;;;;;4966574;28;20517;-87
2022/07/28 11:27:53;;;;;;;5.33;1.70;;;29.90;1.00;;;;;;4957092;28;20464;-83
2022/07/28 11:30:24;;;;;;;2.20;1.43;;;30.10;1.00;;;;;;4963942;28;20465;-83
2022/07/28 11:33:11;;;;;;;3.20;1.60;;;30.40;1.00;;;;;;4970790;28;20458;-82
2022/07/28 11:35:42;;;;;;;4.97;1.83;;;30.60;1.00;;;;;;4966133;28;20445;-83
2022/07/28 11:38:18;;;;;;;5.00;1.40;;;30.70;1.00;;;;;;4968726;28;20445;-83
2022/07/28 11:40:55;;;;;;;3.03;1.40;;;30.60;1.00;;;;;;4975141;28;20499;-83
2022/07/28 11:43:38;;;;;;;4.40;1.40;;;30.60;1.00;;;;;;4955291;28;20825;-83
2022/07/28 11:46:23;;;;;;;4.03;1.50;;;30.70;1.00;;;;;;5020534;28;20446;-83
2022/07/28 11:49:26;;;;;;;4.50;1.20;;;30.70;1.00;;;;;;5019038;28;20868;-83
2022/07/28 11:52:13;;;;;;;5.03;2.20;;;30.90;1.00;;;;;;4971546;28;20501;-82
2022/07/28 11:55:00;;;;;;;2.07;1.30;;;31.00;1.00;;;;;;4954512;28;20421;-82
2022/07/28 11:57:43;;;;;;;1.47;1.20;;;31.20;1.00;;;;;;4961531;28;20420;-82
2022/07/28 12:00:10;;;;;;;2.10;1.30;;;31.40;1.00;;;;;;4950334;28;20782;-83
2022/07/28 12:02:48;;;;;;;4.20;1.40;;;31.60;1.00;;;;;;4964162;28;20432;-83
2022/07/28 12:05:16;;;;;;;6.17;1.70;;;31.70;1.00;;;;;;4968737;28;20434;-79
2022/07/28 12:07:50;;;;;;;7.33;1.20;;;31.60;1.00;;;;;;4987216;28;20891;-78
2022/07/28 12:10:29;;;;;;;2.37;1.53;;;31.50;1.00;;;;;;4982881;28;20813;-78
2022/07/28 12:13:01;;;;;;;2.00;1.17;;;31.50;1.00;;;;;;4989317;28;20443;-78
2022/07/28 12:15:30;;;;;;;3.27;1.33;;;31.50;1.00;;;;;;4984362;28;20832;-79
2022/07/28 12:18:10;;;;;;;2.20;1.43;;;31.50;1.00;;;;;;5013628;28;20441;-78
2022/07/28 12:20:46;;;;;;;3.33;1.40;;;31.70;1.00;;;;;;4996550;28;20435;-79
2022/07/28 12:23:28;;;;;;;4.90;1.63;;;31.80;1.00;;;;;;4996289;28;20437;-79
2022/07/28 12:25:54;;;;;;;2.23;1.37;;;31.80;1.00;;;;;;5021106;28;20441;-79
2022/07/28 12:28:33;;;;;;;1.83;1.60;;;31.80;1.00;;;;;;5049024;28;20418;-78
2022/07/28 12:31:18;;;;;;;4.63;1.43;;;31.50;1.00;;;;;;5042834;28;20192;-78
2022/07/28 12:33:51;;;;;;;1.10;1.10;;;31.60;1.00;;;;;;5052107;28;20430;-78
2022/07/28 12:36:25;;;;;;;2.80;1.53;;;31.80;1.00;;;;;;5044603;28;20447;-78
2022/07/28 12:39:00;;;;;;;1.50;1.40;;;32.00;1.00;;;;;;5036526;28;20391;-78
2022/07/28 12:41:34;;;;;;;1.57;1.23;;;32.20;1.00;;;;;;5055048;28;20496;-77
2022/07/28 12:44:02;;;;;;;1.77;1.50;;;32.30;1.00;;;;;;5038106;28;20431;-78
2022/07/28 12:46:47;;;;;;;1.93;1.40;;;32.50;1.00;;;;;;5050696;28;20517;-78
2022/07/28 12:49:30;;;;;;;2.23;1.43;;;32.50;1.00;;;;;;5042944;28;20402;-78
2022/07/28 12:52:21;;;;;;;14.00;2.20;;;32.40;1.00;;;;;;5054658;28;20434;-78
2022/07/28 12:54:54;;;;;;;3.93;1.53;;;32.40;1.00;;;;;;5040907;28;20846;-79
2022/07/28 12:57:46;;;;;;;3.47;1.53;;;32.10;1.00;;;;;;5045058;28;20924;-83
2022/07/28 13:00:33;;;;;;;2.90;1.20;;;32.10;1.00;;;;;;5035248;28;20399;-81
2022/07/28 13:03:28;;;;;;;3.10;1.50;;;32.00;1.00;;;;;;5046022;28;20446;-80
2022/07/28 13:06:11;;;;;;;3.90;1.33;;;32.10;1.00;;;;;;5040379;28;20993;-81
2022/07/28 13:08:43;;;;;;;5.63;1.33;;;32.00;1.00;;;;;;5048921;28;20793;-82
2022/07/28 13:11:15;;;;;;;2.60;1.33;;;32.10;1.00;;;;;;5049878;28;20459;-77
2022/07/28 13:13:59;;;;;;;1.40;1.20;;;32.10;1.00;;;;;;5043517;28;20898;-77
2022/07/28 13:16:30;;;;;;;3.77;1.33;;;31.90;1.00;;;;;;5041888;28;20414;-77
2022/07/28 13:19:20;;;;;;;3.63;1.23;;;32.10;1.00;;;;;;5051305;28;20418;-78
2022/07/28 13:21:56;;;;;;;5.30;2.13;;;32.20;1.00;;;;;;5054074;28;20425;-78
2022/07/28 13:24:22;;;;;;;2.20;1.20;;;32.20;1.00;;;;;;5036811;28;20497;-78
2022/07/28 13:26:48;;;;;;;3.43;1.37;;;32.30;1.00;;;;;;5044997;28;20519;-77
2022/07/28 13:29:18;;;;;;;1.67;1.40;;;32.40;1.00;;;;;;5048041;28;20183;-78
2022/07/28 13:31:44;;;;;;;3.80;1.10;;;32.60;1.00;;;;;;5052438;28;20203;-78
2022/07/28 13:34:12;;;;;;;5.03;1.20;;;32.50;1.00;;;;;;5049043;28;20456;-78
2022/07/28 13:36:38;;;;;;;2.83;1.20;;;32.60;1.00;;;;;;5050432;28;20426;-78
2022/07/28 13:39:30;;;;;;;3.20;1.80;;;32.50;1.00;;;;;;5033708;28;20383;-78
2022/07/28 13:42:06;;;;;;;1.60;1.30;;;32.60;1.00;;;;;;5036989;28;20174;-80
2022/07/28 13:44:37;;;;;;;2.60;1.40;;;32.90;1.00;;;;;;5060605;28;20467;-78
2022/07/28 13:47:25;;;;;;;2.30;1.50;;;33.00;1.00;;;;;;5050438;28;20426;-78
2022/07/28 13:50:06;;;;;;;7.30;1.60;;;32.90;1.00;;;;;;5050183;28;20454;-78
2022/07/28 13:52:42;;;;;;;6.43;2.10;;;33.00;1.00;;;;;;5047891;28;20540;-78
2022/07/28 13:55:08;;;;;;;2.00;1.23;;;32.90;1.00;;;;;;5042715;28;20501;-79
2022/07/28 13:57:36;;;;;;;2.70;1.23;;;33.10;1.00;;;;;;5040606;28;20988;-79
2022/07/28 14:00:14;;;;;;;5.33;1.80;;;33.20;1.00;;;;;;5038728;28;20410;-78
2022/07/28 14:03:12;;;;;;;2.30;1.40;;;33.20;1.00;;;;;;5034558;28;20506;-79
2022/07/28 14:05:42;;;;;;;2.37;1.40;;;33.40;1.00;;;;;;5033972;28;21064;-77
2022/07/28 14:08:17;;;;;;;5.53;1.53;;;33.20;1.00;;;;;;5039740;28;20425;-78
2022/07/28 14:10:55;;;;;;;6.30;1.70;;;33.20;1.00;;;;;;5052173;28;20453;-78
2022/07/28 14:13:21;;;;;;;1.40;1.30;;;33.30;1.00;;;;;;5041712;28;20445;-79
2022/07/28 14:15:48;;;;;;;1.40;1.30;;;33.40;1.00;;;;;;5034810;28;20512;-79